Time;durP1;ratioP1;P1;durP2;ratioP2;P2;SDS_P1;SDS_P2;PMS_P1;PMS_P2;Temp;Humidity;BMP_temperature;BMP_pressure;BME280_temperature;BME280_humidity;BME280_pressure;Samples;Min_cycle;Max_cycle;Signal;HPM_P1;HPM_P2
2024/04/19 00:00:16;;;;;;;11.70;8.18;;;3.00;99.90;;;;;;5344781;26;20012;-70
2024/04/19 00:02:44;;;;;;;11.68;8.40;;;3.00;99.90;;;;;;5345281;26;20379;-67
2024/04/19 00:05:12;;;;;;;11.27;8.80;;;3.00;99.90;;;;;;5314810;26;20025;-68
2024/04/19 00:07:39;;;;;;;12.38;8.65;;;3.00;99.90;;;;;;5345119;26;20502;-67
2024/04/19 00:10:07;;;;;;;10.75;8.13;;;3.00;99.90;;;;;;5341944;26;20009;-68
2024/04/19 00:12:34;;;;;;;15.30;9.15;;;3.10;99.90;;;;;;5344877;26;20013;-67
2024/04/19 00:15:01;;;;;;;12.80;9.27;;;3.00;99.90;;;;;;5343401;26;19997;-67
2024/04/19 00:17:27;;;;;;;11.05;8.85;;;3.10;99.90;;;;;;5344773;26;20004;-67
2024/04/19 00:19:54;;;;;;;11.10;8.18;;;3.10;99.90;;;;;;5344792;26;20008;-68
2024/04/19 00:22:26;;;;;;;15.50;9.43;;;3.10;99.90;;;;;;5339066;26;20075;-68
2024/04/19 00:24:53;;;;;;;13.35;8.70;;;3.10;99.90;;;;;;5343336;26;20023;-68
2024/04/19 00:27:20;;;;;;;12.52;8.90;;;3.00;99.90;;;;;;5344714;26;20001;-68
2024/04/19 00:29:47;;;;;;;12.18;8.48;;;3.00;99.90;;;;;;5342891;26;20011;-68
2024/04/19 00:32:14;;;;;;;11.07;8.25;;;3.00;99.90;;;;;;5344863;26;20001;-68
2024/04/19 00:34:40;;;;;;;11.43;9.02;;;3.10;99.90;;;;;;5344784;26;19997;-67
2024/04/19 00:37:08;;;;;;;12.90;9.70;;;3.10;99.90;;;;;;5344633;26;20000;-68
2024/04/19 00:39:35;;;;;;;13.48;9.57;;;3.10;99.90;;;;;;5344589;26;20352;-68
2024/04/19 00:42:02;;;;;;;14.10;9.57;;;3.10;99.90;;;;;;5344979;26;20005;-67
2024/04/19 00:44:31;;;;;;;13.20;10.13;;;3.10;99.90;;;;;;5344997;26;20019;-68
2024/04/19 00:47:03;;;;;;;13.60;9.95;;;3.10;99.90;;;;;;5342879;26;20004;-68
2024/04/19 00:49:31;;;;;;;13.25;9.15;;;3.10;99.90;;;;;;5342681;26;20011;-68
2024/04/19 00:52:00;;;;;;;14.55;10.40;;;3.10;99.90;;;;;;5343016;26;20012;-68
2024/04/19 00:54:32;;;;;;;;;;;3.10;99.90;;;;;;5342865;26;20033;-68
2024/04/19 00:57:01;;;;;;;12.32;9.27;;;3.20;99.90;;;;;;5342184;26;19995;-68
2024/04/19 00:59:28;;;;;;;15.65;10.48;;;3.20;99.90;;;;;;5344038;26;20520;-68
2024/04/19 01:01:55;;;;;;;14.27;10.25;;;3.20;99.90;;;;;;5344074;26;20005;-68
2024/04/19 01:04:22;;;;;;;15.32;9.98;;;3.20;99.90;;;;;;5344204;26;20012;-68
2024/04/19 01:06:49;;;;;;;14.30;9.98;;;3.20;99.90;;;;;;5342061;26;20453;-68
2024/04/19 01:09:16;;;;;;;13.18;10.00;;;3.20;99.90;;;;;;5343161;26;20005;-68
2024/04/19 01:11:43;;;;;;;16.50;10.82;;;3.20;99.90;;;;;;5341911;26;19996;-69
2024/04/19 01:14:15;;;;;;;14.52;10.48;;;3.20;99.90;;;;;;5344036;26;19997;-68
2024/04/19 01:16:42;;;;;;;16.08;11.45;;;3.20;99.90;;;;;;5343794;26;20008;-68
2024/04/19 01:19:09;;;;;;;15.07;10.23;;;3.10;99.90;;;;;;5343081;26;19997;-68
2024/04/19 01:21:36;;;;;;;15.90;11.75;;;3.10;99.90;;;;;;5342584;26;20096;-68
2024/04/19 01:24:38;;;;;;;13.82;10.35;;;3.10;99.90;;;;;;5342512;26;20004;-68
2024/04/19 01:27:09;;;;;;;16.45;11.38;;;3.10;99.90;;;;;;5328850;26;20008;-67
2024/04/19 01:29:41;;;;;;;16.25;11.77;;;3.10;99.90;;;;;;5341267;26;20079;-68
2024/04/19 01:32:13;;;;;;;17.27;11.07;;;3.00;99.90;;;;;;5341146;26;19997;-68
2024/04/19 01:34:40;;;;;;;15.32;11.65;;;3.00;99.90;;;;;;5342340;26;20020;-68
2024/04/19 01:37:07;;;;;;;16.85;12.05;;;3.00;99.90;;;;;;5342515;26;20005;-68
2024/04/19 01:39:34;;;;;;;16.75;12.00;;;3.00;99.90;;;;;;5341967;26;20008;-68
2024/04/19 01:42:01;;;;;;;20.02;13.18;;;3.00;99.90;;;;;;5344326;26;20013;-68
2024/04/19 01:44:28;;;;;;;16.33;12.13;;;3.00;99.90;;;;;;5336425;26;20004;-68
2024/04/19 01:46:55;;;;;;;16.67;11.70;;;3.00;99.90;;;;;;5342060;26;20027;-67
2024/04/19 01:49:22;;;;;;;18.33;12.10;;;2.90;99.90;;;;;;5343614;26;20487;-68
2024/04/19 01:51:49;;;;;;;16.13;12.10;;;2.90;99.90;;;;;;5338001;26;20005;-68
2024/04/19 01:54:16;;;;;;;16.50;11.85;;;2.90;99.90;;;;;;5341651;26;20434;-68
2024/04/19 01:56:43;;;;;;;18.05;11.80;;;2.90;99.90;;;;;;5343474;26;20005;-68
2024/04/19 01:59:10;;;;;;;20.55;13.48;;;2.90;99.90;;;;;;5343172;26;20008;-68
2024/04/19 02:01:37;;;;;;;17.58;11.93;;;3.00;99.90;;;;;;5343592;26;20003;-68
2024/04/19 02:04:04;;;;;;;18.25;13.10;;;2.90;99.90;;;;;;5341640;26;20013;-68
2024/04/19 02:06:31;;;;;;;20.02;13.05;;;2.90;99.90;;;;;;5344270;26;20078;-68
2024/04/19 02:08:57;;;;;;;18.83;13.18;;;3.00;99.90;;;;;;5346042;26;20023;-68
2024/04/19 02:11:24;;;;;;;19.35;13.23;;;3.00;99.90;;;;;;5346692;26;20001;-68
2024/04/19 02:13:51;;;;;;;16.83;12.32;;;3.10;99.90;;;;;;5363831;26;20009;-68
2024/04/19 02:16:18;;;;;;;19.17;12.32;;;3.10;99.90;;;;;;5346634;26;20016;-68
2024/04/19 02:18:45;;;;;;;19.98;12.93;;;3.10;99.90;;;;;;5346250;26;20024;-68
2024/04/19 02:21:12;;;;;;;19.10;13.20;;;3.10;99.90;;;;;;5346637;26;20001;-68
2024/04/19 02:23:40;;;;;;;20.30;13.38;;;3.10;99.90;;;;;;5346018;26;20137;-68
2024/04/19 02:26:12;;;;;;;18.23;12.82;;;3.10;99.90;;;;;;5346615;26;20377;-68
2024/04/19 02:31:26;;;;;;;18.83;12.70;;;3.00;99.90;;;;;;5346462;26;20017;-68
2024/04/19 02:33:52;;;;;;;22.48;13.73;;;3.00;99.90;;;;;;5346588;26;20015;-68
2024/04/19 02:36:19;;;;;;;20.25;13.13;;;3.10;99.90;;;;;;5314979;26;20005;-68
2024/04/19 02:38:46;;;;;;;20.67;14.43;;;3.10;99.90;;;;;;5345851;26;20461;-69
2024/04/19 02:41:14;;;;;;;19.17;13.63;;;3.20;99.90;;;;;;5346526;26;20353;-68
2024/04/19 02:43:46;;;;;;;20.42;14.02;;;3.10;99.90;;;;;;5344540;26;20001;-68
2024/04/19 02:46:14;;;;;;;20.52;13.20;;;3.20;99.90;;;;;;5346400;26;20540;-68
2024/04/19 02:48:41;;;;;;;19.52;12.45;;;3.10;99.90;;;;;;5346330;26;20465;-69
2024/04/19 02:51:08;;;;;;;20.33;13.57;;;3.10;99.90;;;;;;5344585;26;20453;-68
2024/04/19 02:53:35;;;;;;;22.20;15.23;;;3.10;99.90;;;;;;5346100;26;20005;-68
2024/04/19 02:56:07;;;;;;;22.40;14.95;;;3.10;99.90;;;;;;5340580;26;20016;-69
2024/04/19 02:58:34;;;;;;;21.17;13.90;;;3.00;99.90;;;;;;5343785;26;20037;-68
2024/04/19 03:01:01;;;;;;;20.67;15.02;;;3.00;99.90;;;;;;5343470;26;20024;-68
2024/04/19 03:03:28;;;;;;;21.52;14.63;;;3.00;99.90;;;;;;5344384;26;20097;-68
2024/04/19 03:05:55;;;;;;;22.95;15.23;;;3.00;99.90;;;;;;5346442;26;20037;-69
2024/04/19 03:08:23;;;;;;;23.13;14.88;;;3.00;99.90;;;;;;5336036;26;20019;-68
2024/04/19 03:10:53;;;;;;;23.38;15.15;;;3.00;99.90;;;;;;5345417;26;20078;-68
2024/04/19 03:13:20;;;;;;;23.98;14.95;;;3.00;99.90;;;;;;5344080;26;20436;-68
2024/04/19 03:15:47;;;;;;;25.90;16.02;;;3.00;99.90;;;;;;5341381;26;20354;-68
2024/04/19 03:18:33;;;;;;;24.58;14.48;;;3.00;99.90;;;;;;5344338;26;20391;-68
2024/04/19 03:21:01;;;;;;;23.73;15.02;;;3.00;99.90;;;;;;5343859;26;20009;-68
2024/04/19 03:23:28;;;;;;;26.27;15.00;;;3.00;99.90;;;;;;5344100;26;20037;-68
2024/04/19 03:25:57;;;;;;;23.80;14.98;;;3.00;99.90;;;;;;5340822;26;20057;-68
2024/04/19 03:28:24;;;;;;;22.92;14.85;;;3.00;99.90;;;;;;5339044;26;20441;-68
2024/04/19 03:30:50;;;;;;;23.63;14.95;;;3.00;99.90;;;;;;5315037;26;20009;-68
2024/04/19 03:33:17;;;;;;;24.92;15.68;;;3.00;99.90;;;;;;5345439;26;20021;-68
2024/04/19 03:35:44;;;;;;;22.02;14.75;;;3.00;99.90;;;;;;5345834;26;20013;-67
2024/04/19 03:38:14;;;;;;;25.75;15.43;;;3.10;99.90;;;;;;5345043;26;20070;-68
2024/04/19 03:40:50;;;;;;;22.77;14.48;;;3.10;99.90;;;;;;5343697;26;20011;-68
2024/04/19 03:43:17;;;;;;;20.15;13.38;;;3.10;99.90;;;;;;5315314;26;20020;-68
2024/04/19 03:45:44;;;;;;;23.20;14.43;;;3.00;99.90;;;;;;5345650;26;20033;-68
2024/04/19 03:48:12;;;;;;;22.00;14.13;;;3.00;99.90;;;;;;5314846;26;20087;-69
2024/04/19 03:50:39;;;;;;;21.85;14.02;;;3.00;99.90;;;;;;5343297;26;20024;-68
2024/04/19 03:53:11;;;;;;;21.25;13.98;;;3.10;99.90;;;;;;5340851;26;20151;-70
2024/04/19 03:55:38;;;;;;;19.83;12.90;;;3.10;99.90;;;;;;5336180;26;20005;-68
2024/04/19 03:58:04;;;;;;;23.80;14.30;;;3.10;99.90;;;;;;5343405;26;20009;-69
2024/04/19 04:00:31;;;;;;;21.05;14.07;;;3.10;99.90;;;;;;5340925;26;20382;-73
2024/04/19 04:02:58;;;;;;;19.85;13.50;;;3.10;99.90;;;;;;5286493;26;20001;-68
2024/04/19 04:05:30;;;;;;;19.52;13.38;;;3.10;99.90;;;;;;5345210;26;20357;-68
2024/04/19 04:07:57;;;;;;;21.85;14.48;;;3.10;99.90;;;;;;5343171;26;20005;-68
2024/04/19 04:10:29;;;;;;;20.00;13.30;;;3.10;99.90;;;;;;5341832;26;20469;-68
2024/04/19 04:13:01;;;;;;;20.40;12.65;;;3.20;99.90;;;;;;5371084;26;20013;-68
2024/04/19 04:15:28;;;;;;;17.52;12.27;;;3.20;99.90;;;;;;5345078;26;20041;-68
2024/04/19 04:17:54;;;;;;;19.42;12.93;;;3.20;99.90;;;;;;5342597;26;20619;-68
2024/04/19 04:20:21;;;;;;;19.48;12.45;;;3.20;99.90;;;;;;5344061;26;20396;-68
2024/04/19 04:22:48;;;;;;;19.88;13.10;;;3.20;99.90;;;;;;5357025;26;20001;-67
2024/04/19 04:25:15;;;;;;;19.08;12.10;;;3.20;99.90;;;;;;5343048;26;20016;-68
2024/04/19 04:27:42;;;;;;;19.35;12.70;;;3.30;99.90;;;;;;5344788;26;20022;-68
2024/04/19 04:30:10;;;;;;;17.38;11.70;;;3.30;99.90;;;;;;5344212;26;20017;-68
2024/04/19 04:32:37;;;;;;;18.48;12.63;;;3.20;99.90;;;;;;5345057;26;20015;-68
2024/04/19 04:35:04;;;;;;;17.83;11.68;;;3.20;99.90;;;;;;5344845;26;20001;-68
2024/04/19 04:37:34;;;;;;;16.35;11.73;;;3.20;99.90;;;;;;5342873;26;20008;-68
2024/04/19 04:40:01;;;;;;;17.63;10.57;;;3.30;99.90;;;;;;5343272;26;20016;-68
2024/04/19 04:42:28;;;;;;;16.08;11.63;;;3.30;99.90;;;;;;5334185;26;20571;-68
2024/04/19 04:44:55;;;;;;;17.85;11.10;;;3.20;99.90;;;;;;5338911;26;20017;-67
2024/04/19 04:47:22;;;;;;;16.38;10.77;;;3.30;99.90;;;;;;5341392;26;20009;-68
2024/04/19 04:49:49;;;;;;;18.42;10.57;;;3.30;99.90;;;;;;5342255;26;20457;-68
2024/04/19 04:52:16;;;;;;;16.23;10.65;;;3.30;99.90;;;;;;5338992;26;20051;-68
2024/04/19 04:54:48;;;;;;;15.95;10.77;;;3.30;99.90;;;;;;5341153;26;20041;-68
2024/04/19 04:57:15;;;;;;;15.45;9.93;;;3.30;99.90;;;;;;5340575;26;20005;-68
2024/04/19 04:59:41;;;;;;;15.90;11.07;;;3.30;99.90;;;;;;5343642;26;20008;-68
2024/04/19 05:02:10;;;;;;;15.13;9.98;;;3.40;99.90;;;;;;5344033;26;20012;-68
2024/04/19 05:04:37;;;;;;;15.75;11.10;;;3.40;99.90;;;;;;5342120;26;20012;-68
2024/04/19 05:07:09;;;;;;;14.93;10.20;;;3.30;99.90;;;;;;5342652;26;20496;-68
2024/04/19 05:09:36;;;;;;;15.15;10.15;;;3.30;99.90;;;;;;5313190;26;20001;-68
2024/04/19 05:12:03;;;;;;;14.68;9.65;;;3.40;99.90;;;;;;5339445;26;20461;-68
2024/04/19 05:14:30;;;;;;;16.75;9.90;;;3.40;99.90;;;;;;5342482;26;20092;-68
2024/04/19 05:16:57;;;;;;;14.95;9.52;;;3.40;99.90;;;;;;5343971;26;20468;-68
2024/04/19 05:19:24;;;;;;;14.48;9.77;;;3.40;99.90;;;;;;5342078;26;20009;-68
2024/04/19 05:21:51;;;;;;;15.85;10.40;;;3.40;99.90;;;;;;5344089;26;20583;-68
2024/04/19 05:24:18;;;;;;;14.40;10.05;;;3.40;99.90;;;;;;5342072;26;20001;-68
2024/04/19 05:26:45;;;;;;;15.00;9.82;;;3.50;99.90;;;;;;5344112;26;20025;-68
2024/04/19 05:29:12;;;;;;;15.98;10.50;;;3.50;99.90;;;;;;5341914;26;20000;-68
2024/04/19 05:31:39;;;;;;;15.02;10.05;;;3.50;99.90;;;;;;5343384;26;20005;-68
2024/04/19 05:34:11;;;;;;;15.10;9.82;;;3.50;99.90;;;;;;5313942;26;20033;-68
2024/04/19 05:36:37;;;;;;;16.75;10.60;;;3.60;99.90;;;;;;5342239;26;20001;-68
2024/04/19 05:39:04;;;;;;;15.85;10.32;;;3.60;99.90;;;;;;5342207;26;20025;-68
2024/04/19 05:41:31;;;;;;;15.88;10.00;;;3.60;99.90;;;;;;5340543;26;20009;-68
2024/04/19 05:44:03;;;;;;;13.48;9.10;;;3.60;99.90;;;;;;5342978;26;20485;-68
2024/04/19 05:46:31;;;;;;;13.05;9.43;;;3.70;99.90;;;;;;5343706;26;20457;-68
2024/04/19 05:48:58;;;;;;;17.55;10.90;;;3.70;99.90;;;;;;5338190;26;19997;-68
2024/04/19 05:55:17;;;;;;;15.00;9.93;;;3.70;99.90;;;;;;5345417;26;20012;-68
2024/04/19 05:57:44;;;;;;;15.50;10.18;;;3.70;99.90;;;;;;5340077;26;20001;-68
2024/04/19 06:00:11;;;;;;;15.82;9.85;;;3.70;99.90;;;;;;5343546;26;20028;-68
2024/04/19 06:02:39;;;;;;;18.27;10.05;;;3.70;99.90;;;;;;5341453;26;20029;-68
2024/04/19 06:05:06;;;;;;;15.43;10.32;;;3.80;99.90;;;;;;5338927;26;20047;-68
2024/04/19 06:07:33;;;;;;;17.40;10.90;;;3.80;99.90;;;;;;5343368;26;20016;-68
2024/04/19 06:10:02;;;;;;;14.60;9.50;;;3.80;99.90;;;;;;5312840;26;20009;-68
2024/04/19 06:12:34;;;;;;;14.50;9.68;;;3.80;99.90;;;;;;5341379;26;20005;-68
2024/04/19 06:15:01;;;;;;;16.35;10.55;;;3.90;99.90;;;;;;5341649;26;20019;-68
2024/04/19 06:17:28;;;;;;;16.75;10.02;;;4.00;99.90;;;;;;5342998;26;20013;-68
2024/04/19 06:19:55;;;;;;;17.40;10.02;;;4.00;99.90;;;;;;5341576;26;20012;-68
2024/04/19 06:22:27;;;;;;;15.30;10.23;;;4.00;99.90;;;;;;5341398;26;20005;-68
2024/04/19 06:24:56;;;;;;;17.77;11.02;;;4.00;99.90;;;;;;5343155;26;20096;-68
2024/04/19 06:27:23;;;;;;;14.38;9.55;;;4.10;99.90;;;;;;5342959;26;20369;-68
2024/04/19 06:29:50;;;;;;;17.33;10.80;;;4.20;99.90;;;;;;5341363;26;20078;-68
2024/04/19 06:32:17;;;;;;;16.08;10.07;;;4.20;99.90;;;;;;5342504;26;20020;-68
2024/04/19 06:34:49;;;;;;;15.27;10.60;;;4.20;99.90;;;;;;5341254;26;20490;-68
2024/04/19 06:37:16;;;;;;;16.08;10.55;;;4.20;99.90;;;;;;5342925;26;20005;-68
2024/04/19 06:39:43;;;;;;;16.63;10.10;;;4.20;99.90;;;;;;5339723;26;20001;-68
2024/04/19 06:42:10;;;;;;;19.92;11.38;;;4.30;99.90;;;;;;5342394;26;20001;-68
2024/04/19 06:44:37;;;;;;;21.17;11.48;;;4.30;99.90;;;;;;5342755;26;20012;-68
2024/04/19 06:47:08;;;;;;;16.83;10.48;;;4.30;99.90;;;;;;5341046;26;20473;-68
2024/04/19 06:49:35;;;;;;;15.93;11.02;;;4.30;99.90;;;;;;5341046;26;20074;-68
2024/04/19 06:52:02;;;;;;;15.73;9.75;;;4.40;99.90;;;;;;5340718;26;20012;-68
2024/04/19 06:54:29;;;;;;;13.60;9.77;;;4.40;99.90;;;;;;5343940;26;20059;-68
2024/04/19 06:56:56;;;;;;;13.98;10.38;;;4.40;99.90;;;;;;5346106;26;19997;-68
2024/04/19 06:59:28;;;;;;;17.23;10.82;;;4.40;99.90;;;;;;5344650;26;20012;-68
2024/04/19 07:01:55;;;;;;;14.32;9.48;;;4.50;99.90;;;;;;5345825;26;20016;-68
2024/04/19 07:04:22;;;;;;;15.70;10.57;;;4.50;99.90;;;;;;5344708;26;20011;-68
2024/04/19 07:06:49;;;;;;;15.30;10.07;;;4.50;99.90;;;;;;5344325;26;19997;-68
2024/04/19 07:09:16;;;;;;;16.17;9.85;;;4.60;99.90;;;;;;5340863;26;20042;-68
2024/04/19 07:11:47;;;;;;;17.38;11.07;;;4.60;99.90;;;;;;5344091;26;20499;-68
2024/04/19 07:14:15;;;;;;;13.65;9.93;;;4.60;99.90;;;;;;5344250;26;20025;-68
2024/04/19 07:16:42;;;;;;;13.75;8.98;;;4.70;99.90;;;;;;5345985;26;19997;-68
2024/04/19 07:19:08;;;;;;;12.68;9.25;;;4.70;99.90;;;;;;5345691;26;20001;-69
2024/04/19 07:21:35;;;;;;;13.27;9.02;;;4.70;99.90;;;;;;5343968;26;19997;-68
2024/04/19 07:24:02;;;;;;;11.98;8.45;;;4.70;99.90;;;;;;5344257;26;20005;-69
2024/04/19 07:26:30;;;;;;;14.75;9.75;;;4.80;99.90;;;;;;5341895;26;20001;-69
2024/04/19 07:28:59;;;;;;;14.05;9.15;;;4.90;99.90;;;;;;5343903;26;20040;-68
2024/04/19 07:31:26;;;;;;;13.10;9.02;;;4.90;99.90;;;;;;5344845;26;20071;-68
2024/04/19 07:33:53;;;;;;;14.70;8.93;;;5.00;99.90;;;;;;5342507;26;20015;-68
2024/04/19 07:36:20;;;;;;;13.05;9.38;;;5.00;99.90;;;;;;5345594;26;20074;-68
2024/04/19 07:38:52;;;;;;;13.32;8.65;;;5.20;99.90;;;;;;5307554;26;20551;-68
2024/04/19 07:41:26;;;;;;;12.60;8.30;;;5.10;99.90;;;;;;5345412;26;20012;-68
2024/04/19 07:43:53;;;;;;;12.43;7.47;;;5.20;99.90;;;;;;5321290;26;20006;-68
2024/04/19 07:46:20;;;;;;;10.82;8.15;;;5.20;99.90;;;;;;5343688;26;20003;-68
2024/04/19 07:48:47;;;;;;;11.85;7.95;;;5.20;99.90;;;;;;5343519;26;20004;-68
2024/04/19 07:51:14;;;;;;;11.98;8.73;;;5.20;99.90;;;;;;5340577;26;20464;-68
2024/04/19 07:53:40;;;;;;;10.30;7.47;;;5.20;99.90;;;;;;5345496;26;20005;-68
2024/04/19 07:56:07;;;;;;;11.02;7.55;;;5.20;99.90;;;;;;5342920;26;20015;-68
2024/04/19 07:58:39;;;;;;;10.90;7.93;;;5.30;99.90;;;;;;5339618;26;20005;-68
2024/04/19 08:01:06;;;;;;;11.40;7.20;;;5.30;99.90;;;;;;5341750;26;20405;-68
2024/04/19 08:03:33;;;;;;;10.70;8.18;;;5.30;99.90;;;;;;5345186;26;20345;-68
2024/04/19 08:06:06;;;;;;;12.38;8.18;;;5.30;99.90;;;;;;5344760;26;20004;-68
2024/04/19 08:08:33;;;;;;;11.10;7.55;;;5.40;99.90;;;;;;5345229;26;20488;-68
2024/04/19 08:11:01;;;;;;;11.93;7.95;;;5.40;99.90;;;;;;5343099;26;20066;-69
2024/04/19 08:13:28;;;;;;;11.18;7.63;;;5.40;99.90;;;;;;5338495;26;20016;-68
2024/04/19 08:15:55;;;;;;;9.70;6.93;;;5.50;99.90;;;;;;5345170;26;19997;-68
2024/04/19 08:18:22;;;;;;;11.68;7.57;;;5.50;99.90;;;;;;5343506;26;20016;-68
2024/04/19 08:20:49;;;;;;;11.02;7.82;;;5.60;99.90;;;;;;5314893;26;20001;-68
2024/04/19 08:23:23;;;;;;;13.15;7.90;;;5.60;99.90;;;;;;5315893;26;20009;-68
2024/04/19 08:25:50;;;;;;;10.63;7.13;;;5.70;99.90;;;;;;5345029;26;20016;-68
2024/04/19 08:28:17;;;;;;;10.27;7.00;;;5.70;99.90;;;;;;5344766;26;20012;-68
2024/04/19 08:30:46;;;;;;;8.25;6.00;;;5.80;99.90;;;;;;5344660;26;20479;-68
2024/04/19 08:33:12;;;;;;;9.88;6.53;;;5.90;99.90;;;;;;5322938;26;20079;-68
2024/04/19 08:35:39;;;;;;;8.90;6.32;;;6.00;99.90;;;;;;5343103;26;20029;-68
2024/04/19 08:38:06;;;;;;;9.98;6.38;;;6.00;99.90;;;;;;5344826;26;20013;-68
2024/04/19 08:40:39;;;;;;;9.88;6.28;;;6.20;99.90;;;;;;5342994;26;20033;-68
2024/04/19 08:43:06;;;;;;;9.00;6.30;;;6.10;99.90;;;;;;5341119;26;20535;-68
2024/04/19 08:45:33;;;;;;;8.32;5.82;;;6.20;99.90;;;;;;5344746;26;20587;-68
2024/04/19 08:48:05;;;;;;;11.40;6.10;;;6.20;99.90;;;;;;5344665;26;20001;-68
2024/04/19 08:50:33;;;;;;;8.75;5.80;;;6.30;99.90;;;;;;5342921;26;20033;-68
2024/04/19 08:53:02;;;;;;;9.10;5.60;;;6.20;99.90;;;;;;5344479;26;20016;-68
2024/04/19 08:55:37;;;;;;;13.02;6.18;;;6.20;99.90;;;;;;5344772;26;20001;-68
2024/04/19 08:58:05;;;;;;;8.27;5.70;;;6.20;99.90;;;;;;5342728;26;20388;-69
2024/04/19 09:00:32;;;;;;;8.88;5.93;;;6.20;99.90;;;;;;5344411;26;20012;-69
2024/04/19 09:02:59;;;;;;;8.98;5.65;;;6.30;99.90;;;;;;5341880;26;20028;-68
2024/04/19 09:05:26;;;;;;;7.05;5.38;;;6.20;99.90;;;;;;5344556;26;19997;-68
2024/04/19 09:07:53;;;;;;;8.65;6.00;;;6.30;99.90;;;;;;5342206;26;20082;-68
2024/04/19 09:10:19;;;;;;;7.95;5.47;;;6.40;99.90;;;;;;5343976;26;19993;-68
2024/04/19 09:12:46;;;;;;;9.48;6.60;;;6.40;99.90;;;;;;5342535;26;20049;-68
2024/04/19 09:15:13;;;;;;;8.00;5.90;;;6.40;99.90;;;;;;5340901;26;20029;-68
2024/04/19 09:17:40;;;;;;;7.65;4.78;;;6.50;99.90;;;;;;5310789;26;20006;-68
2024/04/19 09:20:07;;;;;;;7.72;5.10;;;6.50;99.90;;;;;;5344161;26;20001;-68
2024/04/19 09:22:34;;;;;;;7.72;5.00;;;6.50;99.90;;;;;;5343726;26;20009;-68
2024/04/19 09:25:06;;;;;;;6.22;4.22;;;6.40;99.90;;;;;;5337966;26;20005;-68
2024/04/19 09:27:39;;;;;;;7.30;4.85;;;6.20;99.90;;;;;;5342513;26;20023;-68
2024/04/19 09:30:09;;;;;;;6.80;4.55;;;6.20;99.90;;;;;;5344260;26;20051;-68
2024/04/19 09:32:36;;;;;;;6.82;4.32;;;6.20;99.90;;;;;;5368569;26;20020;-68
2024/04/19 09:35:04;;;;;;;5.88;4.43;;;6.30;99.90;;;;;;5342338;26;20078;-68
2024/04/19 09:37:31;;;;;;;6.10;4.03;;;6.50;99.90;;;;;;5342339;26;20396;-68
2024/04/19 09:40:04;;;;;;;7.07;5.10;;;6.70;99.90;;;;;;5343936;26;20024;-68
2024/04/19 09:42:33;;;;;;;5.72;4.00;;;6.80;99.90;;;;;;5341929;26;20487;-68
2024/04/19 09:45:02;;;;;;;6.95;4.55;;;6.80;99.90;;;;;;5343865;26;20403;-68
2024/04/19 09:47:33;;;;;;;5.13;4.25;;;6.90;99.90;;;;;;5342149;26;20005;-68
2024/04/19 09:50:02;;;;;;;8.35;4.95;;;6.80;99.90;;;;;;5343919;26;20008;-68
2024/04/19 09:52:38;;;;;;;6.15;4.22;;;6.80;99.90;;;;;;5343475;26;20009;-68
2024/04/19 09:55:17;;;;;;;7.75;5.10;;;6.80;99.90;;;;;;5337995;26;20005;-68
2024/04/19 09:57:46;;;;;;;5.13;4.28;;;6.70;99.90;;;;;;5330713;26;20372;-68
2024/04/19 10:00:15;;;;;;;6.63;4.70;;;6.50;99.90;;;;;;5341753;26;20005;-68
2024/04/19 10:02:43;;;;;;;7.88;4.93;;;6.50;99.90;;;;;;5343201;26;19997;-68
2024/04/19 10:05:11;;;;;;;5.80;3.97;;;6.60;99.90;;;;;;5339207;26;20016;-69
2024/04/19 10:07:41;;;;;;;6.60;4.57;;;6.70;99.90;;;;;;5343245;26;20057;-67
2024/04/19 10:10:07;;;;;;;6.32;4.72;;;6.60;99.90;;;;;;5365695;26;20016;-68
2024/04/19 10:12:36;;;;;;;6.07;4.35;;;6.50;99.90;;;;;;5337562;26;20012;-67
2024/04/19 10:15:07;;;;;;;7.50;4.60;;;6.40;99.90;;;;;;5340244;26;20472;-67
2024/04/19 10:17:34;;;;;;;6.43;5.10;;;6.40;99.90;;;;;;5341072;26;20012;-68
2024/04/19 10:20:03;;;;;;;6.18;5.03;;;6.50;99.90;;;;;;5340137;26;20454;-68
2024/04/19 10:22:30;;;;;;;6.97;5.22;;;6.40;99.90;;;;;;5341766;26;20036;-67
2024/04/19 10:25:02;;;;;;;6.30;4.75;;;6.50;99.90;;;;;;5342157;26;20020;-67
2024/04/19 10:27:31;;;;;;;6.53;5.18;;;6.50;99.90;;;;;;5342750;26;20005;-67
2024/04/19 10:29:59;;;;;;;8.13;5.68;;;6.50;99.90;;;;;;5345409;26;20001;-67
2024/04/19 10:32:26;;;;;;;6.70;4.93;;;6.60;99.90;;;;;;5338136;26;20013;-67
2024/04/19 10:34:53;;;;;;;8.57;4.85;;;6.70;99.90;;;;;;5343703;26;20005;-67
2024/04/19 10:37:20;;;;;;;8.40;6.18;;;6.60;99.90;;;;;;5341061;26;20005;-67
2024/04/19 10:39:52;;;;;;;8.23;5.63;;;6.50;99.90;;;;;;5342127;26;20009;-67
2024/04/19 10:42:23;;;;;;;5.95;4.63;;;6.40;99.90;;;;;;5333107;26;20086;-67
2024/04/19 10:44:51;;;;;;;7.15;5.25;;;6.20;99.90;;;;;;5330929;26;20009;-67
2024/04/19 10:47:20;;;;;;;7.57;5.50;;;6.20;99.90;;;;;;5338973;26;20082;-67
2024/04/19 10:49:52;;;;;;;7.72;5.20;;;6.30;99.90;;;;;;5335201;26;20001;-67
2024/04/19 10:52:23;;;;;;;7.47;5.45;;;6.20;99.90;;;;;;5343599;26;20579;-67
2024/04/19 10:54:51;;;;;;;6.53;5.40;;;6.20;99.90;;;;;;5344832;26;20074;-67
2024/04/19 10:57:17;;;;;;;8.05;5.00;;;6.10;99.90;;;;;;5340685;26;20033;-67
2024/04/19 10:59:49;;;;;;;7.03;5.18;;;6.00;99.90;;;;;;5313335;26;20461;-67
2024/04/19 11:02:18;;;;;;;8.23;5.90;;;6.00;99.90;;;;;;5343199;26;20017;-67
2024/04/19 11:04:45;;;;;;;8.77;5.13;;;6.00;99.90;;;;;;5344489;26;20004;-67
2024/04/19 11:07:12;;;;;;;6.85;5.13;;;6.00;99.90;;;;;;5344106;26;19997;-67
2024/04/19 11:09:39;;;;;;;9.80;5.90;;;6.10;99.90;;;;;;5341240;26;20028;-67
2024/04/19 11:12:06;;;;;;;6.13;4.88;;;6.10;99.90;;;;;;5344103;26;20005;-67
2024/04/19 11:14:33;;;;;;;7.70;5.28;;;6.00;99.90;;;;;;5343927;26;20056;-67
2024/04/19 11:17:05;;;;;;;7.97;5.07;;;6.00;99.90;;;;;;5343029;26;20475;-67
2024/04/19 11:19:37;;;;;;;8.07;5.30;;;5.90;99.90;;;;;;5344333;26;20470;-67
2024/04/19 11:22:04;;;;;;;7.38;5.57;;;5.80;99.90;;;;;;5343259;26;20005;-67
2024/04/19 11:24:36;;;;;;;7.65;5.28;;;5.80;99.90;;;;;;5338311;26;20056;-67
2024/04/19 11:27:08;;;;;;;8.18;5.75;;;5.70;99.90;;;;;;5338958;26;20013;-67
2024/04/19 11:29:36;;;;;;;6.80;4.72;;;5.80;99.90;;;;;;5342829;26;20025;-67
2024/04/19 11:32:07;;;;;;;7.15;4.85;;;5.80;99.90;;;;;;5333682;26;20008;-67
2024/04/19 11:34:34;;;;;;;7.38;5.43;;;5.80;99.90;;;;;;5340002;26;20057;-67
2024/04/19 11:37:06;;;;;;;6.50;5.18;;;5.80;99.90;;;;;;5339071;26;20005;-67
2024/04/19 11:39:38;;;;;;;6.07;4.65;;;5.80;99.90;;;;;;5335156;26;20006;-67
2024/04/19 11:42:06;;;;;;;8.75;5.45;;;5.90;99.90;;;;;;5327711;26;20074;-68
2024/04/19 11:44:36;;;;;;;7.18;5.45;;;5.90;99.90;;;;;;5336301;26;20470;-68
2024/04/19 11:47:04;;;;;;;6.85;5.53;;;5.90;99.90;;;;;;5338545;26;20013;-68
2024/04/19 11:49:31;;;;;;;6.03;4.45;;;5.80;99.90;;;;;;5342096;26;20346;-74
2024/04/19 11:51:58;;;;;;;7.07;5.00;;;5.70;99.90;;;;;;5337841;26;20005;-68
2024/04/19 11:54:27;;;;;;;6.38;4.97;;;5.60;99.90;;;;;;5334246;26;20537;-69
2024/04/19 11:56:54;;;;;;;9.40;4.80;;;5.50;99.90;;;;;;5332284;26;20032;-68
2024/04/19 11:59:22;;;;;;;6.53;4.43;;;5.40;99.90;;;;;;5341014;26;20477;-68
2024/04/19 12:01:50;;;;;;;6.90;5.40;;;5.30;99.90;;;;;;5321016;26;20005;-68
2024/04/19 12:04:22;;;;;;;7.05;4.38;;;5.30;99.90;;;;;;5338265;26;20013;-68
2024/04/19 12:06:49;;;;;;;22.08;5.20;;;5.30;99.90;;;;;;5329992;26;20046;-68
2024/04/19 12:09:16;;;;;;;8.40;5.28;;;5.40;99.90;;;;;;5336169;26;20020;-67
2024/04/19 12:11:43;;;;;;;7.40;4.80;;;5.40;99.90;;;;;;5337693;26;20028;-68
2024/04/19 12:14:16;;;;;;;6.93;4.75;;;5.40;99.90;;;;;;5334901;26;20017;-68
2024/04/19 12:16:43;;;;;;;6.22;4.70;;;5.50;99.90;;;;;;5341196;26;20027;-69
2024/04/19 12:19:10;;;;;;;7.15;4.47;;;5.50;99.90;;;;;;5329777;26;20614;-68
2024/04/19 12:21:36;;;;;;;9.82;4.30;;;5.60;99.90;;;;;;5334471;26;20079;-68
2024/04/19 12:24:04;;;;;;;5.72;4.10;;;5.70;99.90;;;;;;5338786;26;20011;-68
2024/04/19 12:26:31;;;;;;;6.63;4.47;;;5.70;99.90;;;;;;5340731;26;20017;-69
2024/04/19 12:28:58;;;;;;;6.90;4.78;;;5.70;99.90;;;;;;5341622;26;20020;-68
2024/04/19 12:31:25;;;;;;;6.47;4.20;;;5.60;99.90;;;;;;5341622;26;20017;-68
2024/04/19 12:33:57;;;;;;;8.15;4.25;;;5.50;99.90;;;;;;5336720;26;20016;-68
2024/04/19 12:36:24;;;;;;;4.70;4.20;;;5.50;99.90;;;;;;5337810;26;20012;-68
2024/04/19 12:38:50;;;;;;;5.35;3.90;;;5.50;99.90;;;;;;5335168;26;20088;-69
2024/04/19 12:41:18;;;;;;;5.57;4.53;;;5.50;99.90;;;;;;5307436;26;20497;-70
2024/04/19 12:43:45;;;;;;;6.22;4.35;;;5.60;99.90;;;;;;5335052;26;20044;-69
2024/04/19 12:46:12;;;;;;;5.80;4.55;;;5.50;99.90;;;;;;5306160;26;20412;-68
2024/04/19 12:48:38;;;;;;;5.97;4.75;;;5.50;99.90;;;;;;5334948;26;20351;-68
2024/04/19 12:51:05;;;;;;;5.13;4.10;;;5.40;99.90;;;;;;5334023;26;20005;-68
2024/04/19 12:53:32;;;;;;;6.28;4.55;;;5.40;99.90;;;;;;5338731;26;20540;-69
2024/04/19 12:55:59;;;;;;;6.40;4.38;;;5.30;99.90;;;;;;5334217;26;20027;-69